Airfield :







YOU CAN JOIN US ON...

 
LOGIN :

Register | Disclaimer

   EN    FR    IT 

 









Legend :    VFR   Marginal VFR   IFR   Intensive IFR   Very Intensive IFR
Visi :
Ceiling :
>= 8 km
>= 3000ft
5 to 8 km
1000 to 3000 ft
1500m to 5 km
500 to 1000 ft
800 to 1500m
200 to 500 ft
< 800m
< 200 ft
Symbols :   Thunderstorms  Fog  Heavy snow  Heavy precipitations  Wind > 20 kt






- Airport Elevation : 68 ft
- IATA code : YFC


CYFC - Fredericton

CURRENT METAR :
  • 031817Z AUTO 03017G31KT 360V060 9SM OVC021 05/01 A2998 RMK SLP153

EXPIRED METARs :
  • 031725Z AUTO 03022G32KT 9SM OVC023 07/02 A2994 RMK SLP142
  • 031705Z AUTO 02018G33KT 9SM OVC025 07/02 A2994 RMK SLP141
  • 031649Z AUTO 04024G38KT 9SM -RA OVC025 07/02 A2994 RMK SLP140
  • 031639Z AUTO 04019G35KT 9SM OVC025 07/02 A2994 RMK SLP141
  • 031600Z AUTO 04022G29KT 9SM -RA OVC025 06/02 A2993 RMK SLP138
  • 031550Z AUTO 04020G27KT 7SM -RA OVC025 06/02 A2993 RMK SLP138

TAF TAF CYFC
Valid from the 03 at 18:00 until the 04 at 06:00 UTC


031738Z 0318/0406 03018G28KT P6SM OVC025
TEMPO 0318/0324 5SM -SHRA BR OVC020
FM040000 03015G25KT P6SM -SHSNRA OVC015 RMK FCST BASED ON AUTO OBS. NXT FCST BY 040000Z



MET'MAP, your aeronautical weather chart ! - Copyright ORBIFLY December 2007 - Disclaimer

ORBIFLY MET'MAP TEAM :

Programming & Development : Alexandra Zaïnal
Concept & original design : Baudouin d'Aumeries
Assistance for programming : Marc-Olivier Méhu
Technical & hardware support : Manuel Goepfert

Contact : metmap@orbifly.com




SOURCES & CREDITS :

   NOAA